»·PEaware :: N5030S KMFR-KLMT

N5030S :: KMFR-KLMT

FLIGHT INFORMATION

Flight Status: Arrived
Operator: Privately registered:
United States
More flights under this callsign
Pilot: Skinner Aviation (17962)
Aircraft: Unknown
(0)
More flights by this aircraft type
Origin: KMFR Rogue Valley Intl-Medford
United States
Destination: KLMT Klamath Falls Intl
United States
More flights between these airports :: More routes between these airports
Route: +OED
File this flight plan on PilotEdge
Remarks:
Altitude:
(Current/Filed)
9,000ft
Speed:
(Current/Filed)
165kts
Departed: 29-Jan-18 04:01 PM
Arrived: 29-Jan-18 04:48 PM
Distance/Time
Traveled:
52nm/0:47
Distance/Time
To Go:
Arrived

Flight Plot

Page will automatically refresh every two minutes.

Flight plan parsing failed; only flown route is shown


Map Options




Map Legend


Flown Route
Filed Route
Departure Airport
Arrival Airport
Navaid (VOR, NDB)
Fix

Horizontal Profiles

Position Reports

Time Latitude Longitude Heading Altitude Ground
Speed
29-Jan-18 15:52 42.374959 -122.877846 291 1336ft 0kts
29-Jan-18 15:53 42.374959 -122.877846 291 1336ft 0kts
29-Jan-18 15:54 42.374959 -122.877846 291 1336ft 0kts
29-Jan-18 15:55 42.374959 -122.877846 291 1336ft 0kts
29-Jan-18 15:56 42.374959 -122.877846 291 1336ft 0kts
29-Jan-18 15:57 42.374959 -122.877846 291 1336ft 0kts
29-Jan-18 15:58 42.374959 -122.877846 291 1336ft 0kts
29-Jan-18 15:59 42.374959 -122.877846 291 1336ft 0kts
29-Jan-18 16:00 42.374959 -122.877846 291 1336ft 0kts
29-Jan-18 16:01 42.375846 -122.878271 6 1336ft 6kts
29-Jan-18 16:02 42.376611 -122.875901 26 1336ft 7kts
29-Jan-18 16:03 42.378691 -122.876833 337 1336ft 8kts
29-Jan-18 16:04 42.381456 -122.878350 339 1336ft 12kts
29-Jan-18 16:05 42.384762 -122.880111 341 1336ft 7kts
29-Jan-18 16:06 42.385702 -122.880290 54 1336ft 0kts
29-Jan-18 16:07 42.378453 -122.875228 160 1422ft 94kts
29-Jan-18 16:08 42.353670 -122.872105 245 2582ft 102kts
29-Jan-18 16:09 42.373881 -122.894066 336 3662ft 109kts
29-Jan-18 16:10 42.403285 -122.886816 24 4682ft 116kts
29-Jan-18 16:11 42.434214 -122.885090 335 5793ft 111kts
29-Jan-18 16:12 42.462303 -122.904703 337 6681ft 120kts
29-Jan-18 16:13 42.493260 -122.921284 346 7573ft 121kts
29-Jan-18 16:14 42.527018 -122.931492 338 8379ft 125kts
29-Jan-18 16:15 42.514413 -122.958049 148 8585ft 153kts
29-Jan-18 16:16 42.487046 -122.912399 126 8754ft 166kts
29-Jan-18 16:17 42.472268 -122.853340 106 8776ft 170kts
29-Jan-18 16:18 42.473197 -122.790740 97 8756ft 169kts
29-Jan-18 16:19 42.453914 -122.732832 122 8720ft 170kts
29-Jan-18 16:20 42.428977 -122.678965 122 8716ft 166kts
29-Jan-18 16:21 42.406136 -122.625104 113 8714ft 165kts
29-Jan-18 16:22 42.389527 -122.567403 110 8714ft 164kts
29-Jan-18 16:23 42.374410 -122.512573 110 9163ft 149kts
29-Jan-18 16:24 42.360134 -122.460803 110 9658ft 145kts
29-Jan-18 16:25 42.346141 -122.410156 110 10154ft 143kts
29-Jan-18 16:26 42.327270 -122.364365 144 10649ft 142kts
29-Jan-18 16:27 42.296280 -122.325958 134 10686ft 162kts
29-Jan-18 16:28 42.263879 -122.280810 133 10397ft 170kts
29-Jan-18 16:29 42.230781 -122.234487 133 10098ft 172kts
29-Jan-18 16:30 42.198427 -122.189271 133 10033ft 164kts
29-Jan-18 16:31 42.166984 -122.145393 133 10034ft 161kts
29-Jan-18 16:32 42.135816 -122.101966 133 10034ft 161kts
29-Jan-18 16:33 42.104622 -122.058568 133 10034ft 161kts
29-Jan-18 16:34 42.073340 -122.015112 133 10034ft 162kts
29-Jan-18 16:35 42.042039 -121.971695 133 10034ft 162kts
29-Jan-18 16:36 42.010645 -121.928217 133 10034ft 162kts
29-Jan-18 16:37 41.979382 -121.884984 134 10034ft 162kts
29-Jan-18 16:38 41.947955 -121.841590 134 10033ft 160kts
29-Jan-18 16:39 41.917960 -121.800232 134 10033ft 152kts
29-Jan-18 16:40 41.888714 -121.759965 134 10032ft 146kts
29-Jan-18 16:41 41.870367 -121.716397 87 9916ft 139kts
29-Jan-18 16:42 41.874167 -121.666430 80 9396ft 129kts
29-Jan-18 16:43 41.882275 -121.619016 73 8739ft 128kts
29-Jan-18 16:44 41.899223 -121.580977 2 8734ft 124kts
29-Jan-18 16:45 41.923133 -121.608833 338 8736ft 117kts
29-Jan-18 16:46 41.953630 -121.625031 338 8211ft 117kts
29-Jan-18 16:47 41.983569 -121.641005 338 7553ft 116kts
29-Jan-18 16:48 42.013915 -121.657213 338 6892ft 118kts
29-Jan-18 16:49 42.044354 -121.673487 338 6231ft 117kts
29-Jan-18 16:50 42.073902 -121.689301 338 5596ft 112kts
29-Jan-18 16:51 42.102351 -121.704541 338 4996ft 109kts
29-Jan-18 16:52 42.130185 -121.719466 338 4422ft 105kts
29-Jan-18 16:53 42.152972 -121.731579 338 4097ft 56kts
29-Jan-18 16:54 42.157626 -121.737679 275 4097ft 0kts

Navigation Log

Ident Type
Flight plan parsing failed, navigation log unavailable